sensor_id;sensor_type;location;lat;lon;timestamp;temperature;humidity
64855;DHT22;51321;50.428;8.378;2024-02-14T00:02:30;7.80;99.90
64855;DHT22;51321;50.428;8.378;2024-02-14T00:05:11;7.70;99.90
64855;DHT22;51321;50.428;8.378;2024-02-14T00:07:51;7.70;99.90
64855;DHT22;51321;50.428;8.378;2024-02-14T00:10:32;7.70;99.90
64855;DHT22;51321;50.428;8.378;2024-02-14T00:13:12;7.70;99.90
64855;DHT22;51321;50.428;8.378;2024-02-14T00:15:55;7.80;99.90
64855;DHT22;51321;50.428;8.378;2024-02-14T00:18:35;7.80;99.90
64855;DHT22;51321;50.428;8.378;2024-02-14T00:21:16;7.80;99.90
64855;DHT22;51321;50.428;8.378;2024-02-14T00:23:56;7.80;99.90
64855;DHT22;51321;50.428;8.378;2024-02-14T00:26:37;7.90;99.90
64855;DHT22;51321;50.428;8.378;2024-02-14T00:29:19;7.90;99.90
64855;DHT22;51321;50.428;8.378;2024-02-14T00:32:02;7.80;99.90
64855;DHT22;51321;50.428;8.378;2024-02-14T00:34:42;7.90;99.90
64855;DHT22;51321;50.428;8.378;2024-02-14T00:37:24;7.90;99.90
64855;DHT22;51321;50.428;8.378;2024-02-14T00:40:06;7.80;99.90
64855;DHT22;51321;50.428;8.378;2024-02-14T00:42:47;7.80;99.90
64855;DHT22;51321;50.428;8.378;2024-02-14T00:45:27;7.70;99.90
64855;DHT22;51321;50.428;8.378;2024-02-14T00:48:09;7.70;99.90
64855;DHT22;51321;50.428;8.378;2024-02-14T00:50:50;7.50;99.90
64855;DHT22;51321;50.428;8.378;2024-02-14T00:53:31;7.40;99.90
64855;DHT22;51321;50.428;8.378;2024-02-14T00:56:12;7.30;99.90
64855;DHT22;51321;50.428;8.378;2024-02-14T00:58:53;7.30;99.90
64855;DHT22;51321;50.428;8.378;2024-02-14T01:01:33;7.30;99.90
64855;DHT22;51321;50.428;8.378;2024-02-14T01:04:17;7.30;99.90
64855;DHT22;51321;50.428;8.378;2024-02-14T01:06:57;7.30;99.90
64855;DHT22;51321;50.428;8.378;2024-02-14T01:09:38;7.30;99.90
64855;DHT22;51321;50.428;8.378;2024-02-14T01:12:19;7.30;99.90
64855;DHT22;51321;50.428;8.378;2024-02-14T01:14:59;7.30;99.90
64855;DHT22;51321;50.428;8.378;2024-02-14T01:17:40;7.40;99.90
64855;DHT22;51321;50.428;8.378;2024-02-14T01:20:21;7.50;99.90
64855;DHT22;51321;50.428;8.378;2024-02-14T01:23:03;7.60;99.90
64855;DHT22;51321;50.428;8.378;2024-02-14T01:25:44;7.60;99.90
64855;DHT22;51321;50.428;8.378;2024-02-14T01:28:25;7.60;99.90
64855;DHT22;51321;50.428;8.378;2024-02-14T01:31:05;7.60;99.90
64855;DHT22;51321;50.428;8.378;2024-02-14T01:33:46;7.70;99.90
64855;DHT22;51321;50.428;8.378;2024-02-14T01:36:28;7.60;99.90
64855;DHT22;51321;50.428;8.378;2024-02-14T01:39:08;7.60;99.90
64855;DHT22;51321;50.428;8.378;2024-02-14T01:41:50;7.60;99.90
64855;DHT22;51321;50.428;8.378;2024-02-14T01:44:30;7.60;99.90
64855;DHT22;51321;50.428;8.378;2024-02-14T01:47:11;7.60;99.90
64855;DHT22;51321;50.428;8.378;2024-02-14T01:49:52;7.60;99.90
64855;DHT22;51321;50.428;8.378;2024-02-14T01:52:34;7.60;99.90
64855;DHT22;51321;50.428;8.378;2024-02-14T01:55:14;7.50;99.90
64855;DHT22;51321;50.428;8.378;2024-02-14T01:57:56;7.50;99.90
64855;DHT22;51321;50.428;8.378;2024-02-14T02:00:37;7.50;99.90
64855;DHT22;51321;50.428;8.378;2024-02-14T02:03:25;7.60;99.90
64855;DHT22;51321;50.428;8.378;2024-02-14T02:06:06;7.60;99.90
64855;DHT22;51321;50.428;8.378;2024-02-14T02:08:48;7.60;99.90
64855;DHT22;51321;50.428;8.378;2024-02-14T02:11:29;7.60;99.90
64855;DHT22;51321;50.428;8.378;2024-02-14T02:14:10;7.70;99.90
64855;DHT22;51321;50.428;8.378;2024-02-14T02:16:51;7.80;99.90
64855;DHT22;51321;50.428;8.378;2024-02-14T02:19:32;7.70;99.90
64855;DHT22;51321;50.428;8.378;2024-02-14T02:22:13;7.70;99.90
64855;DHT22;51321;50.428;8.378;2024-02-14T02:24:55;7.60;99.90
64855;DHT22;51321;50.428;8.378;2024-02-14T02:27:35;7.60;99.90
64855;DHT22;51321;50.428;8.378;2024-02-14T02:30:16;7.50;99.90
64855;DHT22;51321;50.428;8.378;2024-02-14T02:32:57;7.50;99.90
64855;DHT22;51321;50.428;8.378;2024-02-14T02:35:41;7.40;99.90
64855;DHT22;51321;50.428;8.378;2024-02-14T02:38:24;7.40;99.90
64855;DHT22;51321;50.428;8.378;2024-02-14T02:41:06;7.40;99.90
64855;DHT22;51321;50.428;8.378;2024-02-14T02:43:47;7.40;99.90
64855;DHT22;51321;50.428;8.378;2024-02-14T02:46:30;7.40;99.90
64855;DHT22;51321;50.428;8.378;2024-02-14T02:49:11;7.30;99.90
64855;DHT22;51321;50.428;8.378;2024-02-14T02:51:54;7.40;99.90
64855;DHT22;51321;50.428;8.378;2024-02-14T02:54:35;7.40;99.90
64855;DHT22;51321;50.428;8.378;2024-02-14T02:57:17;7.40;99.90
64855;DHT22;51321;50.428;8.378;2024-02-14T02:59:58;7.40;99.90
64855;DHT22;51321;50.428;8.378;2024-02-14T03:02:39;7.40;99.90
64855;DHT22;51321;50.428;8.378;2024-02-14T03:05:23;7.50;99.90
64855;DHT22;51321;50.428;8.378;2024-02-14T03:08:04;7.50;99.90
64855;DHT22;51321;50.428;8.378;2024-02-14T03:10:46;7.50;99.90
64855;DHT22;51321;50.428;8.378;2024-02-14T03:13:28;7.50;99.90
64855;DHT22;51321;50.428;8.378;2024-02-14T03:16:09;7.60;99.90
64855;DHT22;51321;50.428;8.378;2024-02-14T03:18:50;7.50;99.90
64855;DHT22;51321;50.428;8.378;2024-02-14T03:21:31;7.60;99.90
64855;DHT22;51321;50.428;8.378;2024-02-14T03:24:14;7.70;99.90
64855;DHT22;51321;50.428;8.378;2024-02-14T03:26:55;7.60;99.90
64855;DHT22;51321;50.428;8.378;2024-02-14T03:29:37;7.70;99.90
64855;DHT22;51321;50.428;8.378;2024-02-14T03:32:17;7.70;99.90
64855;DHT22;51321;50.428;8.378;2024-02-14T03:34:59;7.80;99.90
64855;DHT22;51321;50.428;8.378;2024-02-14T03:37:40;7.90;99.90
64855;DHT22;51321;50.428;8.378;2024-02-14T03:40:20;7.80;99.90
64855;DHT22;51321;50.428;8.378;2024-02-14T03:43:01;7.80;99.90
64855;DHT22;51321;50.428;8.378;2024-02-14T03:45:43;7.80;99.90
64855;DHT22;51321;50.428;8.378;2024-02-14T03:48:24;7.80;99.90
64855;DHT22;51321;50.428;8.378;2024-02-14T03:51:04;7.90;99.90
64855;DHT22;51321;50.428;8.378;2024-02-14T03:53:45;7.90;99.90
64855;DHT22;51321;50.428;8.378;2024-02-14T03:56:26;7.90;99.90
64855;DHT22;51321;50.428;8.378;2024-02-14T03:59:06;7.90;99.90
64855;DHT22;51321;50.428;8.378;2024-02-14T04:01:48;8.00;99.90
64855;DHT22;51321;50.428;8.378;2024-02-14T04:04:29;8.00;99.90
64855;DHT22;51321;50.428;8.378;2024-02-14T04:07:10;8.00;99.90
64855;DHT22;51321;50.428;8.378;2024-02-14T04:09:51;8.10;99.90
64855;DHT22;51321;50.428;8.378;2024-02-14T04:12:32;8.10;99.90
64855;DHT22;51321;50.428;8.378;2024-02-14T04:15:12;8.10;99.90
64855;DHT22;51321;50.428;8.378;2024-02-14T04:17:54;8.10;99.90
64855;DHT22;51321;50.428;8.378;2024-02-14T04:20:35;8.10;99.90
64855;DHT22;51321;50.428;8.378;2024-02-14T04:23:15;8.10;99.90
64855;DHT22;51321;50.428;8.378;2024-02-14T04:25:56;8.10;99.90
64855;DHT22;51321;50.428;8.378;2024-02-14T04:28:38;8.10;99.90
64855;DHT22;51321;50.428;8.378;2024-02-14T04:31:19;8.10;99.90
64855;DHT22;51321;50.428;8.378;2024-02-14T04:34:01;8.10;99.90
64855;DHT22;51321;50.428;8.378;2024-02-14T04:36:41;8.00;99.90
64855;DHT22;51321;50.428;8.378;2024-02-14T04:39:22;8.00;99.90
64855;DHT22;51321;50.428;8.378;2024-02-14T04:42:03;8.00;99.90
64855;DHT22;51321;50.428;8.378;2024-02-14T04:44:44;8.00;99.90
64855;DHT22;51321;50.428;8.378;2024-02-14T04:47:25;8.00;99.90
64855;DHT22;51321;50.428;8.378;2024-02-14T04:50:08;8.10;99.90
64855;DHT22;51321;50.428;8.378;2024-02-14T04:52:48;8.10;99.90
64855;DHT22;51321;50.428;8.378;2024-02-14T04:55:29;8.00;99.90
64855;DHT22;51321;50.428;8.378;2024-02-14T04:58:10;8.00;99.90
64855;DHT22;51321;50.428;8.378;2024-02-14T05:00:50;8.00;99.90
64855;DHT22;51321;50.428;8.378;2024-02-14T05:03:31;8.00;99.90
64855;DHT22;51321;50.428;8.378;2024-02-14T05:06:13;8.00;99.90
64855;DHT22;51321;50.428;8.378;2024-02-14T05:08:53;7.90;99.90
64855;DHT22;51321;50.428;8.378;2024-02-14T05:11:34;7.80;99.90
64855;DHT22;51321;50.428;8.378;2024-02-14T05:14:14;7.80;99.90
64855;DHT22;51321;50.428;8.378;2024-02-14T05:16:55;7.80;99.90
64855;DHT22;51321;50.428;8.378;2024-02-14T05:19:35;7.80;99.90
64855;DHT22;51321;50.428;8.378;2024-02-14T05:22:17;7.80;99.90
64855;DHT22;51321;50.428;8.378;2024-02-14T05:24:58;7.90;99.90
64855;DHT22;51321;50.428;8.378;2024-02-14T05:27:39;7.80;99.90
64855;DHT22;51321;50.428;8.378;2024-02-14T05:30:19;7.90;99.90
64855;DHT22;51321;50.428;8.378;2024-02-14T05:33:00;7.80;99.90
64855;DHT22;51321;50.428;8.378;2024-02-14T05:35:40;7.90;99.90
64855;DHT22;51321;50.428;8.378;2024-02-14T05:38:22;7.90;99.90
64855;DHT22;51321;50.428;8.378;2024-02-14T05:41:03;7.90;99.90
64855;DHT22;51321;50.428;8.378;2024-02-14T05:43:43;7.90;99.90
64855;DHT22;51321;50.428;8.378;2024-02-14T05:46:24;7.90;99.90
64855;DHT22;51321;50.428;8.378;2024-02-14T05:49:04;7.80;99.90
64855;DHT22;51321;50.428;8.378;2024-02-14T05:51:45;7.90;99.90
64855;DHT22;51321;50.428;8.378;2024-02-14T05:54:27;7.90;99.90
64855;DHT22;51321;50.428;8.378;2024-02-14T05:57:08;7.90;99.90
64855;DHT22;51321;50.428;8.378;2024-02-14T05:59:48;7.90;99.90
64855;DHT22;51321;50.428;8.378;2024-02-14T06:02:28;7.90;99.90
64855;DHT22;51321;50.428;8.378;2024-02-14T06:05:09;7.90;99.90
64855;DHT22;51321;50.428;8.378;2024-02-14T06:07:50;8.00;99.90
64855;DHT22;51321;50.428;8.378;2024-02-14T06:10:32;8.00;99.90
64855;DHT22;51321;50.428;8.378;2024-02-14T06:13:13;8.00;99.90
64855;DHT22;51321;50.428;8.378;2024-02-14T06:15:53;8.00;99.90
64855;DHT22;51321;50.428;8.378;2024-02-14T06:18:33;8.10;99.90
64855;DHT22;51321;50.428;8.378;2024-02-14T06:21:14;8.00;99.90
64855;DHT22;51321;50.428;8.378;2024-02-14T06:23:55;8.00;99.90
64855;DHT22;51321;50.428;8.378;2024-02-14T06:26:38;7.90;99.90
64855;DHT22;51321;50.428;8.378;2024-02-14T06:29:19;7.90;99.90
64855;DHT22;51321;50.428;8.378;2024-02-14T06:31:59;8.00;99.90
64855;DHT22;51321;50.428;8.378;2024-02-14T06:34:40;7.90;99.90
64855;DHT22;51321;50.428;8.378;2024-02-14T06:37:20;7.90;99.90
64855;DHT22;51321;50.428;8.378;2024-02-14T06:40:01;7.90;99.90
64855;DHT22;51321;50.428;8.378;2024-02-14T06:42:43;7.90;99.90
64855;DHT22;51321;50.428;8.378;2024-02-14T06:45:23;7.90;99.90
64855;DHT22;51321;50.428;8.378;2024-02-14T06:48:04;7.80;99.90
64855;DHT22;51321;50.428;8.378;2024-02-14T06:50:44;7.80;99.90
64855;DHT22;51321;50.428;8.378;2024-02-14T06:53:25;7.80;99.90
64855;DHT22;51321;50.428;8.378;2024-02-14T06:56:06;7.80;99.90
64855;DHT22;51321;50.428;8.378;2024-02-14T06:58:48;7.80;99.90
64855;DHT22;51321;50.428;8.378;2024-02-14T07:01:32;7.70;99.90
64855;DHT22;51321;50.428;8.378;2024-02-14T07:04:13;7.70;99.90
64855;DHT22;51321;50.428;8.378;2024-02-14T07:06:53;7.80;99.90
64855;DHT22;51321;50.428;8.378;2024-02-14T07:09:34;7.80;99.90
64855;DHT22;51321;50.428;8.378;2024-02-14T07:12:16;7.90;99.90
64855;DHT22;51321;50.428;8.378;2024-02-14T07:14:58;7.90;99.90
64855;DHT22;51321;50.428;8.378;2024-02-14T07:17:38;7.90;99.90
64855;DHT22;51321;50.428;8.378;2024-02-14T07:20:18;7.90;99.90
64855;DHT22;51321;50.428;8.378;2024-02-14T07:22:59;7.80;99.90
64855;DHT22;51321;50.428;8.378;2024-02-14T07:25:40;7.90;99.90
64855;DHT22;51321;50.428;8.378;2024-02-14T07:28:21;7.80;99.90
64855;DHT22;51321;50.428;8.378;2024-02-14T07:31:03;7.80;99.90
64855;DHT22;51321;50.428;8.378;2024-02-14T07:33:44;7.80;99.90
64855;DHT22;51321;50.428;8.378;2024-02-14T07:36:26;7.80;99.90
64855;DHT22;51321;50.428;8.378;2024-02-14T07:39:06;7.90;99.90
64855;DHT22;51321;50.428;8.378;2024-02-14T07:41:47;7.90;99.90
64855;DHT22;51321;50.428;8.378;2024-02-14T07:44:27;8.00;99.90
64855;DHT22;51321;50.428;8.378;2024-02-14T07:47:09;7.90;99.90
64855;DHT22;51321;50.428;8.378;2024-02-14T07:49:49;8.10;99.90
64855;DHT22;51321;50.428;8.378;2024-02-14T07:52:32;8.10;99.90
64855;DHT22;51321;50.428;8.378;2024-02-14T07:55:12;8.20;99.90
64855;DHT22;51321;50.428;8.378;2024-02-14T07:57:53;8.40;99.90
64855;DHT22;51321;50.428;8.378;2024-02-14T08:00:33;8.50;99.90
64855;DHT22;51321;50.428;8.378;2024-02-14T08:03:15;8.50;99.90
64855;DHT22;51321;50.428;8.378;2024-02-14T08:05:56;8.60;99.90
64855;DHT22;51321;50.428;8.378;2024-02-14T08:08:38;8.70;99.90
64855;DHT22;51321;50.428;8.378;2024-02-14T08:11:18;8.80;99.90
64855;DHT22;51321;50.428;8.378;2024-02-14T08:13:59;8.70;99.90
64855;DHT22;51321;50.428;8.378;2024-02-14T08:16:39;8.70;99.90
64855;DHT22;51321;50.428;8.378;2024-02-14T08:19:21;8.80;99.90
64855;DHT22;51321;50.428;8.378;2024-02-14T08:22:02;8.90;99.90
64855;DHT22;51321;50.428;8.378;2024-02-14T08:24:44;8.90;99.90
64855;DHT22;51321;50.428;8.378;2024-02-14T08:27:25;8.80;99.90
64855;DHT22;51321;50.428;8.378;2024-02-14T08:30:07;8.90;99.90
64855;DHT22;51321;50.428;8.378;2024-02-14T08:32:48;9.00;99.90
64855;DHT22;51321;50.428;8.378;2024-02-14T08:35:30;9.00;99.90
64855;DHT22;51321;50.428;8.378;2024-02-14T08:38:12;9.00;99.90
64855;DHT22;51321;50.428;8.378;2024-02-14T08:40:53;9.10;99.90
64855;DHT22;51321;50.428;8.378;2024-02-14T08:43:34;9.10;99.90
64855;DHT22;51321;50.428;8.378;2024-02-14T08:46:14;9.20;99.90
64855;DHT22;51321;50.428;8.378;2024-02-14T08:48:57;9.20;99.90
64855;DHT22;51321;50.428;8.378;2024-02-14T08:51:39;9.30;99.90
64855;DHT22;51321;50.428;8.378;2024-02-14T08:54:22;9.40;99.90
64855;DHT22;51321;50.428;8.378;2024-02-14T08:57:03;9.50;99.90
64855;DHT22;51321;50.428;8.378;2024-02-14T08:59:44;9.60;99.90
64855;DHT22;51321;50.428;8.378;2024-02-14T09:02:26;9.60;99.90
64855;DHT22;51321;50.428;8.378;2024-02-14T09:05:08;9.50;99.90
64855;DHT22;51321;50.428;8.378;2024-02-14T09:07:50;9.50;99.90
64855;DHT22;51321;50.428;8.378;2024-02-14T09:10:30;9.60;99.90
64855;DHT22;51321;50.428;8.378;2024-02-14T09:13:11;9.60;99.90
64855;DHT22;51321;50.428;8.378;2024-02-14T09:15:51;9.80;99.90
64855;DHT22;51321;50.428;8.378;2024-02-14T09:18:33;9.80;99.90
64855;DHT22;51321;50.428;8.378;2024-02-14T09:21:14;10.00;99.90
64855;DHT22;51321;50.428;8.378;2024-02-14T09:23:57;10.10;99.90
64855;DHT22;51321;50.428;8.378;2024-02-14T09:26:37;10.30;99.90
64855;DHT22;51321;50.428;8.378;2024-02-14T09:29:18;10.50;99.90
64855;DHT22;51321;50.428;8.378;2024-02-14T09:31:58;10.80;99.90
64855;DHT22;51321;50.428;8.378;2024-02-14T09:34:39;10.90;99.90
64855;DHT22;51321;50.428;8.378;2024-02-14T09:37:19;11.00;99.90
64855;DHT22;51321;50.428;8.378;2024-02-14T09:40:01;10.90;99.90
64855;DHT22;51321;50.428;8.378;2024-02-14T09:42:44;10.90;99.90
64855;DHT22;51321;50.428;8.378;2024-02-14T09:45:25;10.80;99.90
64855;DHT22;51321;50.428;8.378;2024-02-14T09:48:07;10.80;99.90
64855;DHT22;51321;50.428;8.378;2024-02-14T09:50:49;10.90;99.90
64855;DHT22;51321;50.428;8.378;2024-02-14T09:53:29;11.00;99.90
64855;DHT22;51321;50.428;8.378;2024-02-14T09:56:12;10.90;99.90
64855;DHT22;51321;50.428;8.378;2024-02-14T09:58:55;11.00;99.90
64855;DHT22;51321;50.428;8.378;2024-02-14T10:01:35;10.90;99.90
64855;DHT22;51321;50.428;8.378;2024-02-14T10:04:16;10.90;99.90
64855;DHT22;51321;50.428;8.378;2024-02-14T10:06:58;10.90;99.90
64855;DHT22;51321;50.428;8.378;2024-02-14T10:09:41;10.80;99.90
64855;DHT22;51321;50.428;8.378;2024-02-14T10:12:23;10.80;99.90
64855;DHT22;51321;50.428;8.378;2024-02-14T10:15:04;10.90;99.90
64855;DHT22;51321;50.428;8.378;2024-02-14T10:17:45;11.10;99.90
64855;DHT22;51321;50.428;8.378;2024-02-14T10:20:26;11.50;99.90
64855;DHT22;51321;50.428;8.378;2024-02-14T10:23:07;11.90;99.90
64855;DHT22;51321;50.428;8.378;2024-02-14T10:25:49;12.30;99.90
64855;DHT22;51321;50.428;8.378;2024-02-14T10:28:32;12.60;99.90
64855;DHT22;51321;50.428;8.378;2024-02-14T10:31:13;12.80;99.90
64855;DHT22;51321;50.428;8.378;2024-02-14T10:33:55;12.80;99.90
64855;DHT22;51321;50.428;8.378;2024-02-14T10:36:36;12.90;99.90
64855;DHT22;51321;50.428;8.378;2024-02-14T10:39:20;12.70;99.90
64855;DHT22;51321;50.428;8.378;2024-02-14T10:42:02;12.60;99.90
64855;DHT22;51321;50.428;8.378;2024-02-14T10:44:44;12.70;99.90
64855;DHT22;51321;50.428;8.378;2024-02-14T10:47:30;12.80;99.90
64855;DHT22;51321;50.428;8.378;2024-02-14T10:50:13;12.80;99.90
64855;DHT22;51321;50.428;8.378;2024-02-14T10:52:57;12.80;99.90
64855;DHT22;51321;50.428;8.378;2024-02-14T10:55:40;13.00;99.90
64855;DHT22;51321;50.428;8.378;2024-02-14T10:58:24;13.20;99.90
64855;DHT22;51321;50.428;8.378;2024-02-14T11:01:05;13.20;99.90
64855;DHT22;51321;50.428;8.378;2024-02-14T11:03:48;13.00;99.90
64855;DHT22;51321;50.428;8.378;2024-02-14T11:06:30;12.80;99.90
64855;DHT22;51321;50.428;8.378;2024-02-14T11:09:12;12.90;99.90
64855;DHT22;51321;50.428;8.378;2024-02-14T11:11:58;12.90;99.90
64855;DHT22;51321;50.428;8.378;2024-02-14T11:14:42;13.00;99.90
64855;DHT22;51321;50.428;8.378;2024-02-14T11:17:25;13.00;99.90
64855;DHT22;51321;50.428;8.378;2024-02-14T11:20:17;13.00;99.90
64855;DHT22;51321;50.428;8.378;2024-02-14T11:23:01;12.90;99.90
64855;DHT22;51321;50.428;8.378;2024-02-14T11:25:44;12.90;99.90
64855;DHT22;51321;50.428;8.378;2024-02-14T11:28:25;13.00;99.90
64855;DHT22;51321;50.428;8.378;2024-02-14T11:31:07;13.10;99.90
64855;DHT22;51321;50.428;8.378;2024-02-14T11:33:50;13.10;99.90
64855;DHT22;51321;50.428;8.378;2024-02-14T11:36:32;13.00;99.90
64855;DHT22;51321;50.428;8.378;2024-02-14T11:39:12;13.00;99.90
64855;DHT22;51321;50.428;8.378;2024-02-14T11:41:57;12.80;99.90
64855;DHT22;51321;50.428;8.378;2024-02-14T11:44:39;12.70;99.90
64855;DHT22;51321;50.428;8.378;2024-02-14T11:47:22;12.70;99.90
64855;DHT22;51321;50.428;8.378;2024-02-14T11:50:05;12.80;99.90
64855;DHT22;51321;50.428;8.378;2024-02-14T11:52:46;12.80;99.90
64855;DHT22;51321;50.428;8.378;2024-02-14T11:55:30;12.70;99.90
64855;DHT22;51321;50.428;8.378;2024-02-14T11:58:11;12.60;99.90
64855;DHT22;51321;50.428;8.378;2024-02-14T12:00:53;12.50;99.90
64855;DHT22;51321;50.428;8.378;2024-02-14T12:03:35;12.40;99.90
64855;DHT22;51321;50.428;8.378;2024-02-14T12:06:19;12.40;99.90
64855;DHT22;51321;50.428;8.378;2024-02-14T12:09:00;12.30;99.90
64855;DHT22;51321;50.428;8.378;2024-02-14T12:11:44;12.40;99.90
64855;DHT22;51321;50.428;8.378;2024-02-14T12:14:27;12.50;99.90
64855;DHT22;51321;50.428;8.378;2024-02-14T12:17:08;12.60;99.90
64855;DHT22;51321;50.428;8.378;2024-02-14T12:19:49;12.70;99.90
64855;DHT22;51321;50.428;8.378;2024-02-14T12:22:33;12.70;99.90
64855;DHT22;51321;50.428;8.378;2024-02-14T12:25:13;12.70;99.90
64855;DHT22;51321;50.428;8.378;2024-02-14T12:27:56;12.70;99.90
64855;DHT22;51321;50.428;8.378;2024-02-14T12:30:47;12.70;99.90
64855;DHT22;51321;50.428;8.378;2024-02-14T12:33:28;12.60;99.90
64855;DHT22;51321;50.428;8.378;2024-02-14T12:36:11;12.60;99.90
64855;DHT22;51321;50.428;8.378;2024-02-14T12:38:52;12.50;99.90
64855;DHT22;51321;50.428;8.378;2024-02-14T12:41:33;12.50;99.90
64855;DHT22;51321;50.428;8.378;2024-02-14T12:44:16;12.40;99.90
64855;DHT22;51321;50.428;8.378;2024-02-14T12:46:57;12.30;99.90
64855;DHT22;51321;50.428;8.378;2024-02-14T12:49:37;12.20;99.90
64855;DHT22;51321;50.428;8.378;2024-02-14T12:52:18;12.10;99.90
64855;DHT22;51321;50.428;8.378;2024-02-14T12:55:00;12.10;99.90
64855;DHT22;51321;50.428;8.378;2024-02-14T12:57:41;11.90;99.90
64855;DHT22;51321;50.428;8.378;2024-02-14T13:00:22;11.80;99.90
64855;DHT22;51321;50.428;8.378;2024-02-14T13:03:03;11.70;99.90
64855;DHT22;51321;50.428;8.378;2024-02-14T13:05:44;11.70;99.90
64855;DHT22;51321;50.428;8.378;2024-02-14T13:08:24;11.70;99.90
64855;DHT22;51321;50.428;8.378;2024-02-14T13:11:07;11.70;99.90
64855;DHT22;51321;50.428;8.378;2024-02-14T13:13:48;11.70;99.90
64855;DHT22;51321;50.428;8.378;2024-02-14T13:16:29;11.70;99.90
64855;DHT22;51321;50.428;8.378;2024-02-14T13:19:09;11.70;99.90
64855;DHT22;51321;50.428;8.378;2024-02-14T13:21:53;11.60;99.90
64855;DHT22;51321;50.428;8.378;2024-02-14T13:24:34;11.60;99.90
64855;DHT22;51321;50.428;8.378;2024-02-14T13:27:16;11.60;99.90
64855;DHT22;51321;50.428;8.378;2024-02-14T13:29:56;11.60;99.90
64855;DHT22;51321;50.428;8.378;2024-02-14T13:32:37;11.60;99.90
64855;DHT22;51321;50.428;8.378;2024-02-14T13:35:17;11.60;99.90
64855;DHT22;51321;50.428;8.378;2024-02-14T13:37:58;11.70;99.90
64855;DHT22;51321;50.428;8.378;2024-02-14T13:40:38;11.80;99.90
64855;DHT22;51321;50.428;8.378;2024-02-14T13:43:20;11.90;99.90
64855;DHT22;51321;50.428;8.378;2024-02-14T13:46:01;12.00;99.90
64855;DHT22;51321;50.428;8.378;2024-02-14T13:48:41;12.20;99.90
64855;DHT22;51321;50.428;8.378;2024-02-14T13:51:22;12.40;99.90
64855;DHT22;51321;50.428;8.378;2024-02-14T13:54:02;12.40;99.90
64855;DHT22;51321;50.428;8.378;2024-02-14T13:56:43;12.50;99.90
64855;DHT22;51321;50.428;8.378;2024-02-14T13:59:25;12.60;99.90
64855;DHT22;51321;50.428;8.378;2024-02-14T14:02:06;12.60;99.90
64855;DHT22;51321;50.428;8.378;2024-02-14T14:04:48;12.60;99.90
64855;DHT22;51321;50.428;8.378;2024-02-14T14:07:29;12.70;99.90
64855;DHT22;51321;50.428;8.378;2024-02-14T14:10:10;12.70;99.90
64855;DHT22;51321;50.428;8.378;2024-02-14T14:12:50;12.60;99.90
64855;DHT22;51321;50.428;8.378;2024-02-14T14:15:32;12.50;99.90
64855;DHT22;51321;50.428;8.378;2024-02-14T14:18:13;12.40;99.90
64855;DHT22;51321;50.428;8.378;2024-02-14T14:20:53;12.10;99.90
64855;DHT22;51321;50.428;8.378;2024-02-14T14:23:33;12.00;99.90
64855;DHT22;51321;50.428;8.378;2024-02-14T14:26:14;11.90;99.90
64855;DHT22;51321;50.428;8.378;2024-02-14T14:28:55;11.80;99.90
64855;DHT22;51321;50.428;8.378;2024-02-14T14:31:36;11.80;99.90
64855;DHT22;51321;50.428;8.378;2024-02-14T14:34:17;11.80;99.90
64855;DHT22;51321;50.428;8.378;2024-02-14T14:36:59;11.70;99.90
64855;DHT22;51321;50.428;8.378;2024-02-14T14:39:40;11.70;99.90
64855;DHT22;51321;50.428;8.378;2024-02-14T14:42:20;11.60;99.90
64855;DHT22;51321;50.428;8.378;2024-02-14T14:45:01;11.60;99.90
64855;DHT22;51321;50.428;8.378;2024-02-14T14:47:43;11.70;99.90
64855;DHT22;51321;50.428;8.378;2024-02-14T14:50:24;11.60;99.90
64855;DHT22;51321;50.428;8.378;2024-02-14T14:53:05;11.60;99.90
64855;DHT22;51321;50.428;8.378;2024-02-14T14:55:50;11.60;99.90
64855;DHT22;51321;50.428;8.378;2024-02-14T14:58:31;11.60;99.90
64855;DHT22;51321;50.428;8.378;2024-02-14T15:01:16;11.60;99.90
64855;DHT22;51321;50.428;8.378;2024-02-14T15:03:58;11.60;99.90
64855;DHT22;51321;50.428;8.378;2024-02-14T15:06:38;11.50;99.90
64855;DHT22;51321;50.428;8.378;2024-02-14T15:09:18;11.50;99.90
64855;DHT22;51321;50.428;8.378;2024-02-14T15:11:59;11.50;99.90
64855;DHT22;51321;50.428;8.378;2024-02-14T15:14:39;11.60;99.90
64855;DHT22;51321;50.428;8.378;2024-02-14T15:17:20;11.60;99.90
64855;DHT22;51321;50.428;8.378;2024-02-14T15:20:04;11.60;99.90
64855;DHT22;51321;50.428;8.378;2024-02-14T15:22:44;11.60;99.90
64855;DHT22;51321;50.428;8.378;2024-02-14T15:25:25;11.60;99.90
64855;DHT22;51321;50.428;8.378;2024-02-14T15:28:07;11.60;99.90
64855;DHT22;51321;50.428;8.378;2024-02-14T15:30:52;11.60;99.90
64855;DHT22;51321;50.428;8.378;2024-02-14T15:33:51;11.60;99.90
64855;DHT22;51321;50.428;8.378;2024-02-14T15:36:33;11.60;99.90
64855;DHT22;51321;50.428;8.378;2024-02-14T15:39:14;11.70;99.90
64855;DHT22;51321;50.428;8.378;2024-02-14T15:41:55;11.60;99.90
64855;DHT22;51321;50.428;8.378;2024-02-14T15:44:36;11.70;99.90
64855;DHT22;51321;50.428;8.378;2024-02-14T15:47:16;11.70;99.90
64855;DHT22;51321;50.428;8.378;2024-02-14T15:49:57;11.70;99.90
64855;DHT22;51321;50.428;8.378;2024-02-14T15:52:39;11.70;99.90
64855;DHT22;51321;50.428;8.378;2024-02-14T15:55:20;11.60;99.90
64855;DHT22;51321;50.428;8.378;2024-02-14T15:58:01;11.50;99.90
64855;DHT22;51321;50.428;8.378;2024-02-14T16:00:41;11.50;99.90
64855;DHT22;51321;50.428;8.378;2024-02-14T16:03:22;11.50;99.90
64855;DHT22;51321;50.428;8.378;2024-02-14T16:06:02;11.60;99.90
64855;DHT22;51321;50.428;8.378;2024-02-14T16:08:44;11.50;99.90
64855;DHT22;51321;50.428;8.378;2024-02-14T16:11:24;11.50;99.90
64855;DHT22;51321;50.428;8.378;2024-02-14T16:14:05;11.50;99.90
64855;DHT22;51321;50.428;8.378;2024-02-14T16:16:46;11.40;99.90
64855;DHT22;51321;50.428;8.378;2024-02-14T16:19:27;11.30;99.90
64855;DHT22;51321;50.428;8.378;2024-02-14T16:22:07;11.30;99.90
64855;DHT22;51321;50.428;8.378;2024-02-14T16:24:50;11.20;99.90
64855;DHT22;51321;50.428;8.378;2024-02-14T16:27:35;11.20;99.90
64855;DHT22;51321;50.428;8.378;2024-02-14T16:30:16;11.20;99.90
64855;DHT22;51321;50.428;8.378;2024-02-14T16:32:58;11.10;99.90
64855;DHT22;51321;50.428;8.378;2024-02-14T16:35:39;11.00;99.90
64855;DHT22;51321;50.428;8.378;2024-02-14T16:38:20;10.90;99.90
64855;DHT22;51321;50.428;8.378;2024-02-14T16:41:02;10.90;99.90
64855;DHT22;51321;50.428;8.378;2024-02-14T16:43:43;10.90;99.90
64855;DHT22;51321;50.428;8.378;2024-02-14T16:46:24;10.80;99.90
64855;DHT22;51321;50.428;8.378;2024-02-14T16:49:04;10.80;99.90
64855;DHT22;51321;50.428;8.378;2024-02-14T16:51:49;10.70;99.90
64855;DHT22;51321;50.428;8.378;2024-02-14T16:54:29;10.80;99.90
64855;DHT22;51321;50.428;8.378;2024-02-14T16:57:12;10.70;99.90
64855;DHT22;51321;50.428;8.378;2024-02-14T16:59:52;10.70;99.90
64855;DHT22;51321;50.428;8.378;2024-02-14T17:02:33;10.70;99.90
64855;DHT22;51321;50.428;8.378;2024-02-14T17:05:14;10.60;99.90
64855;DHT22;51321;50.428;8.378;2024-02-14T17:07:54;10.60;99.90
64855;DHT22;51321;50.428;8.378;2024-02-14T17:10:35;10.60;99.90